Home   Weather   Poland   Częstochowa   Past weeks
Flag for Poland

Past Weather in Częstochowa, Poland — Yesterday and Last 2 Weeks

Currently: 66 °F. Sunny. (Weather station: Katowice Airport, Poland). See more current weather

Past Weather in Częstochowa — Graph

°F

Częstochowa Temperature Yesterday

Maximum temperature yesterday: 70 °F (at 3:00 pm)
Minimum temperature yesterday: 41 °F (at 5:30 am)
Average temperature yesterday: 57 °F

High & Low Weather Summary for the Past Weeks

 TemperatureHumidityPressure
High79 °F (Jun 8, 1:30 pm)100% (Jun 1, 4:00 am)30.30 "Hg (Jun 1, 4:00 am)
Low34 °F (Jun 1, 4:00 am)30% (Jun 7, 4:00 pm)29.86 "Hg (Jun 12, 6:00 pm)
Average60 °F67%30.11 "Hg
* Reported May 31 9:00 am — Jun 15 9:00 am, Częstochowa. Weather by CustomWeather, © 2021

Note: Actual official high and low records may vary slightly from our data, if they occured in-between our weather recording intervals... More about our weather records

Częstochowa Weather History for the Previous 24 Hours

Scroll right to see more
 ConditionsComfort  
Time TempWeatherWind HumidityBarometerVisibility
9:00 am
Tue, Jun 15
66 °FSunny.2 mph52%30.12 "Hg10 mi
8:30 am66 °FSunny.2 mph52%30.12 "Hg10 mi
8:00 am64 °FSunny.1 mph56%30.12 "Hg10 mi
7:30 am61 °FSunny.1 mph68%30.12 "Hg10 mi
7:00 am54 °FSunny.1 mph82%30.12 "Hg10 mi
6:30 am50 °FSunny.2 mph82%30.09 "Hg10 mi
6:00 am46 °FSunny.3 mph87%30.09 "Hg10 mi
5:30 am41 °FFog.2 mph100%30.12 "HgN/A
5:00 am39 °FFog.1 mph93%30.12 "HgN/A
4:30 am43 °FFog.5 mph93%30.09 "HgN/A
4:00 am43 °FFog.5 mph93%30.09 "HgN/A
3:30 am43 °FFog.1 mph93%30.12 "HgN/A
3:00 am43 °FLight fog.5 mph93%30.12 "HgN/A
2:30 am43 °FSleet. Light fog.2 mph93%30.12 "HgN/A
2:00 am45 °FLight fog.2 mph93%30.12 "HgN/A
1:30 am45 °FLight fog.1 mph93%30.12 "HgN/A
1:00 am45 °FFog.2 mph93%30.12 "HgN/A
12:30 am46 °FClear.2 mph87%30.12 "Hg10 mi
12:00 am48 °FClear.2 mph87%30.15 "Hg10 mi
11:30 pm
Mon, Jun 14
48 °FClear.2 mph94%30.15 "Hg10 mi
11:00 pm50 °FClear.2 mph88%30.15 "Hg10 mi
10:30 pm52 °FClear.1 mph82%30.15 "Hg10 mi
10:00 pm54 °FClear.1 mph77%30.12 "Hg10 mi
9:30 pm55 °FClear.2 mph72%30.12 "Hg10 mi
9:00 pm59 °FClear.2 mph68%30.12 "Hg10 mi
8:30 pm63 °FSunny.3 mph56%30.12 "Hg10 mi
8:00 pm66 °FSunny.5 mph46%30.12 "Hg10 mi
7:30 pm68 °FSunny.7 mph43%30.12 "Hg10 mi
7:00 pm68 °FSunny.6 mph40%30.12 "Hg10 mi
6:30 pm68 °FSunny.3 mph43%30.12 "Hg10 mi
6:00 pm68 °FPassing clouds.8 mph43%30.12 "HgN/A
5:30 pm66 °FPassing clouds.7 mph43%30.12 "HgN/A
5:00 pm68 °FSunny.5 mph43%30.12 "Hg10 mi
4:30 pm66 °FSunny.8 mph46%30.15 "Hg10 mi
4:00 pm66 °FPassing clouds.7 mph43%30.15 "HgN/A
3:30 pm68 °FPassing clouds.8 mph40%30.15 "HgN/A
3:00 pm70 °FSunny.5 mph40%30.15 "Hg10 mi
2:30 pm66 °FPassing clouds.6 mph46%30.18 "HgN/A
2:00 pm66 °FPassing clouds.5 mph43%30.18 "HgN/A
1:30 pm66 °FPassing clouds.8 mph43%30.18 "HgN/A
1:00 pm64 °FPassing clouds.9 mph49%30.18 "HgN/A
12:30 pm66 °FScattered clouds.6 mph43%30.18 "HgN/A
12:00 pm64 °FScattered clouds.9 mph49%30.18 "HgN/A
11:30 am64 °FScattered clouds.9 mph56%30.21 "HgN/A
11:00 am63 °FPassing clouds.8 mph56%30.21 "HgN/A
10:30 am63 °FPassing clouds.8 mph56%30.18 "HgN/A
10:00 am61 °FPassing clouds.8 mph59%30.21 "HgN/A
Weather by CustomWeather, © 2021

See weather overview